createdAt,value
2022-10-26T00:00:19.025Z,98179.00
2022-10-26T00:02:56.574Z,98171.00
2022-10-26T00:05:35.258Z,98191.00
2022-10-26T00:09:18.542Z,98180.00
2022-10-26T00:11:54.303Z,98201.00
2022-10-26T00:14:37.306Z,98198.00
2022-10-26T00:17:54.726Z,98199.00
2022-10-26T00:20:34.557Z,98182.00
2022-10-26T00:23:25.218Z,98194.00
2022-10-26T00:26:08.341Z,98198.00
2022-10-26T00:29:07.793Z,98183.00
2022-10-26T00:31:43.508Z,98183.00
2022-10-26T00:34:25.201Z,98179.00
2022-10-26T00:37:21.000Z,98186.00
2022-10-26T00:40:18.928Z,98175.00
2022-10-26T00:43:17.975Z,98198.00
2022-10-26T00:46:21.637Z,98185.00
2022-10-26T00:52:02.576Z,98192.00
2022-10-26T00:54:44.787Z,98199.00
2022-10-26T00:57:39.493Z,98195.00
2022-10-26T01:00:37.065Z,98191.00
2022-10-26T01:03:26.222Z,98192.00
2022-10-26T01:06:38.447Z,98194.00
2022-10-26T01:09:16.021Z,98195.00
2022-10-26T01:13:05.291Z,98200.00
2022-10-26T01:16:31.022Z,98189.00
2022-10-26T01:20:07.705Z,98183.00
2022-10-26T01:23:45.664Z,98187.00
2022-10-26T01:30:34.529Z,98158.00
2022-10-26T01:34:18.763Z,98168.00
2022-10-26T01:41:23.906Z,98146.00
2022-10-26T01:44:43.122Z,98140.00
2022-10-26T01:47:45.796Z,98137.00
2022-10-26T01:50:28.988Z,98137.00
2022-10-26T01:53:56.412Z,98151.00
2022-10-26T01:56:36.299Z,98138.00
2022-10-26T01:59:58.518Z,98141.00
2022-10-26T02:03:36.391Z,98149.00
2022-10-26T02:06:27.034Z,98149.00
2022-10-26T02:09:08.434Z,98163.00
2022-10-26T02:12:04.602Z,98156.00
2022-10-26T02:14:50.007Z,98151.00
2022-10-26T02:17:38.163Z,98143.00
2022-10-26T02:25:18.877Z,98120.00
2022-10-26T02:28:11.690Z,98132.00
2022-10-26T02:31:20.500Z,98160.00
2022-10-26T02:33:58.861Z,98163.00
2022-10-26T02:40:56.427Z,98170.00
2022-10-26T02:43:37.883Z,98163.00
2022-10-26T02:47:01.584Z,98177.00
2022-10-26T02:54:20.762Z,98172.00
2022-10-26T02:57:10.400Z,98170.00
2022-10-26T03:00:04.792Z,98170.00
2022-10-26T03:02:48.345Z,98147.00
2022-10-26T03:05:27.207Z,98160.00
2022-10-26T03:08:51.358Z,98178.00
2022-10-26T03:11:31.897Z,98187.00
2022-10-26T03:14:16.214Z,98161.00
2022-10-26T03:17:34.954Z,98193.00
2022-10-26T03:25:01.951Z,98198.00
2022-10-26T03:32:09.810Z,98222.00
2022-10-26T03:34:49.328Z,98242.00
2022-10-26T03:37:31.714Z,98259.00
2022-10-26T03:40:08.534Z,98251.00
2022-10-26T03:42:55.323Z,98268.00
2022-10-26T03:45:37.289Z,98257.00
2022-10-26T03:48:26.485Z,98252.00
2022-10-26T03:51:07.011Z,98241.00
2022-10-26T03:54:43.425Z,98254.00
2022-10-26T03:57:31.974Z,98251.00
2022-10-26T04:00:21.074Z,98232.00
2022-10-26T04:07:58.211Z,98227.00
2022-10-26T04:10:38.109Z,98227.00
2022-10-26T04:13:16.424Z,98216.00
2022-10-26T04:15:51.149Z,98226.00
2022-10-26T04:18:27.956Z,98157.00
2022-10-26T04:21:33.605Z,98151.00
2022-10-26T04:24:13.244Z,98167.00
2022-10-26T04:27:09.014Z,98190.00
2022-10-26T04:30:01.717Z,98197.00
2022-10-26T04:33:25.613Z,98207.00
2022-10-26T04:40:16.108Z,98225.00
2022-10-26T04:44:05.935Z,98218.00
2022-10-26T04:47:29.095Z,98221.00
2022-10-26T04:50:19.094Z,98208.00
2022-10-26T05:01:12.720Z,98210.00
2022-10-26T05:03:56.634Z,98200.00
2022-10-26T05:11:48.479Z,98202.00
2022-10-26T05:15:37.451Z,98210.00
2022-10-26T05:19:10.077Z,98209.00
2022-10-26T05:22:11.334Z,98199.00
2022-10-26T05:24:46.181Z,98203.00
2022-10-26T05:27:31.463Z,98209.00
2022-10-26T05:30:08.263Z,98205.00
2022-10-26T05:32:42.761Z,98230.00
2022-10-26T05:35:21.316Z,98210.00
2022-10-26T05:38:20.031Z,98199.00
2022-10-26T05:40:57.375Z,98218.00
2022-10-26T05:43:39.261Z,98217.00
2022-10-26T05:46:19.903Z,98210.00
2022-10-26T05:49:08.791Z,98216.00
2022-10-26T05:51:47.717Z,98210.00
2022-10-26T05:54:43.017Z,98220.00
2022-10-26T06:05:43.133Z,98236.00
2022-10-26T06:08:38.738Z,98244.00
2022-10-26T06:11:32.347Z,98253.00
2022-10-26T06:14:10.380Z,98236.00
2022-10-26T06:17:14.089Z,98261.00
2022-10-26T06:20:10.769Z,98269.00
2022-10-26T06:23:36.352Z,98250.00
2022-10-26T06:26:26.081Z,98264.00
2022-10-26T06:29:15.194Z,98256.00
2022-10-26T06:31:56.719Z,98270.00
2022-10-26T06:34:36.891Z,98266.00
2022-10-26T06:37:27.748Z,98279.00
2022-10-26T06:40:14.955Z,98285.00
2022-10-26T06:43:04.598Z,98298.00
2022-10-26T06:45:49.663Z,98309.00
2022-10-26T06:48:53.804Z,98306.00
2022-10-26T06:51:30.859Z,98320.00
2022-10-26T06:54:14.859Z,98324.00
2022-10-26T06:57:01.500Z,98319.00
2022-10-26T06:59:45.483Z,98338.00
2022-10-26T07:02:21.018Z,98335.00
2022-10-26T07:04:56.723Z,98344.00
2022-10-26T07:07:33.297Z,98345.00
2022-10-26T07:10:16.387Z,98339.00
2022-10-26T07:13:11.354Z,98342.00
2022-10-26T07:15:57.098Z,98347.00
2022-10-26T07:18:49.732Z,98350.00
2022-10-26T07:21:25.117Z,98328.00
2022-10-26T07:23:59.524Z,98353.00
2022-10-26T07:26:57.587Z,98363.00
2022-10-26T07:29:52.310Z,98365.00
2022-10-26T07:32:39.747Z,98362.00
2022-10-26T07:35:21.883Z,98365.00
2022-10-26T07:38:03.175Z,98373.00
2022-10-26T07:40:44.282Z,98384.00
2022-10-26T07:47:31.135Z,98384.00
2022-10-26T07:54:22.673Z,98388.00
2022-10-26T08:02:19.348Z,98394.00
2022-10-26T08:04:53.880Z,98394.00
2022-10-26T08:07:28.799Z,98392.00
2022-10-26T08:10:11.606Z,98394.00
2022-10-26T08:14:05.364Z,98398.00
2022-10-26T08:17:15.051Z,98405.00
2022-10-26T08:20:36.949Z,98404.00
2022-10-26T08:23:55.859Z,98407.00
2022-10-26T08:26:31.908Z,98397.00
2022-10-26T08:34:18.737Z,98416.00
2022-10-26T08:36:58.088Z,98410.00
2022-10-26T08:40:03.011Z,98418.00
2022-10-26T08:42:53.080Z,98414.00
2022-10-26T08:45:36.892Z,98428.00
2022-10-26T08:48:20.971Z,98430.00
2022-10-26T08:50:57.426Z,98420.00
2022-10-26T08:54:02.697Z,98425.00
2022-10-26T08:56:44.904Z,98438.00
2022-10-26T08:59:36.197Z,98423.00
2022-10-26T09:02:16.981Z,98441.00
2022-10-26T09:05:02.044Z,98436.00
2022-10-26T09:07:50.756Z,98443.00
2022-10-26T09:11:24.847Z,98437.00
2022-10-26T09:23:22.239Z,98457.00
2022-10-26T09:26:56.497Z,98461.00
2022-10-26T09:33:43.948Z,98469.00
2022-10-26T09:37:25.070Z,98472.00
2022-10-26T09:40:08.462Z,98474.00
2022-10-26T09:43:24.712Z,98477.00
2022-10-26T09:54:43.074Z,98488.00
2022-10-26T09:58:09.802Z,98487.00
2022-10-26T10:00:46.327Z,98495.00
2022-10-26T10:03:29.060Z,98490.00
2022-10-26T10:06:27.831Z,98497.00
2022-10-26T10:09:12.703Z,98494.00
2022-10-26T10:13:05.826Z,98495.00
2022-10-26T10:15:54.699Z,98496.00
2022-10-26T10:18:29.268Z,98505.00
2022-10-26T10:21:20.261Z,98513.00
2022-10-26T10:23:57.161Z,98515.00
2022-10-26T10:27:03.879Z,98514.00
2022-10-26T10:30:22.118Z,98522.00
2022-10-26T10:33:11.639Z,98525.00
2022-10-26T10:35:53.534Z,98506.00
2022-10-26T10:38:29.312Z,98529.00
2022-10-26T10:41:37.554Z,98531.00
2022-10-26T10:45:22.459Z,98520.00
2022-10-26T10:52:57.541Z,98518.00
2022-10-26T11:03:38.175Z,98536.00
2022-10-26T11:10:46.024Z,98551.00
2022-10-26T11:17:39.298Z,98549.00
2022-10-26T11:24:33.808Z,98541.00
2022-10-26T11:28:21.323Z,98555.00
2022-10-26T11:35:20.262Z,98560.00
2022-10-26T11:38:57.320Z,98557.00
2022-10-26T11:45:42.051Z,98553.00
2022-10-26T11:57:31.160Z,98565.00
2022-10-26T12:08:51.194Z,98566.00
2022-10-26T12:19:53.386Z,98566.00
2022-10-26T12:22:38.063Z,98561.00
2022-10-26T12:26:16.096Z,98573.00
2022-10-26T12:28:54.575Z,98574.00
2022-10-26T12:32:30.963Z,98572.00
2022-10-26T12:39:34.133Z,98578.00
2022-10-26T12:43:29.451Z,98581.00
2022-10-26T12:46:42.371Z,98580.00
2022-10-26T12:54:07.618Z,98575.00
2022-10-26T12:56:57.052Z,98586.00
2022-10-26T13:03:57.807Z,98590.00
2022-10-26T13:10:37.217Z,98597.00
2022-10-26T13:18:39.192Z,98600.00
2022-10-26T13:21:50.125Z,98597.00
2022-10-26T13:28:53.920Z,98602.00
2022-10-26T13:32:34.221Z,98599.00
2022-10-26T13:36:21.705Z,98597.00
2022-10-26T13:40:07.855Z,98604.00
2022-10-26T13:42:50.840Z,98599.00
2022-10-26T13:46:24.970Z,98608.00
2022-10-26T13:50:07.489Z,98603.00
2022-10-26T14:13:45.431Z,98633.00
2022-10-26T14:25:02.717Z,98639.00
2022-10-26T14:28:37.911Z,98643.00
2022-10-26T14:31:28.960Z,98648.00
2022-10-26T14:38:26.552Z,98658.00
2022-10-26T14:45:49.930Z,98652.00
2022-10-26T14:52:56.490Z,98660.00
2022-10-26T14:59:57.427Z,98656.00
2022-10-26T15:03:03.758Z,98656.00
2022-10-26T15:05:59.700Z,98657.00
2022-10-26T15:17:01.237Z,98679.00
2022-10-26T15:19:40.153Z,98661.00
2022-10-26T15:22:30.903Z,98680.00
2022-10-26T15:25:10.081Z,98679.00
2022-10-26T15:27:45.411Z,98680.00
2022-10-26T15:31:37.024Z,98689.00
2022-10-26T15:34:17.163Z,98693.00
2022-10-26T15:36:56.845Z,98681.00
2022-10-26T15:39:32.573Z,98698.00
2022-10-26T15:42:17.931Z,98703.00
2022-10-26T15:46:04.779Z,98705.00
2022-10-26T15:57:24.880Z,98700.00
2022-10-26T16:07:43.905Z,98718.00
2022-10-26T16:10:55.356Z,98706.00
2022-10-26T16:14:06.597Z,98711.00
2022-10-26T16:20:32.295Z,98710.00
2022-10-26T16:23:17.228Z,98712.00
2022-10-26T16:26:09.498Z,98732.00
2022-10-26T16:29:13.023Z,98735.00
2022-10-26T16:31:49.642Z,98716.00
2022-10-26T16:38:39.594Z,98742.00
2022-10-26T16:54:16.152Z,98752.00
2022-10-26T17:05:33.794Z,98752.00
2022-10-26T17:09:06.915Z,98763.00
2022-10-26T17:15:09.972Z,98784.00
2022-10-26T17:17:48.980Z,98764.00
2022-10-26T17:32:21.496Z,98802.00
2022-10-26T17:35:23.260Z,98803.00
2022-10-26T17:44:42.316Z,98827.00
2022-10-26T17:54:34.946Z,98832.00
2022-10-26T17:57:29.396Z,98826.00
2022-10-26T18:00:32.025Z,98833.00
2022-10-26T18:03:46.182Z,98840.00
2022-10-26T18:10:26.121Z,98842.00
2022-10-26T18:19:01.728Z,98829.00
2022-10-26T18:25:51.125Z,98850.00
2022-10-26T18:32:54.590Z,98861.00
2022-10-26T18:51:48.354Z,98865.00
2022-10-26T19:17:37.185Z,98877.00
2022-10-26T19:20:47.268Z,98882.00
2022-10-26T19:23:31.680Z,98886.00
2022-10-26T19:26:17.471Z,98883.00
2022-10-26T19:29:05.676Z,98898.00
2022-10-26T19:31:56.490Z,98893.00
2022-10-26T19:34:44.505Z,98895.00
2022-10-26T19:41:33.356Z,98906.00
2022-10-26T19:44:48.318Z,98896.00
2022-10-26T19:54:42.293Z,98911.00
2022-10-26T19:57:53.521Z,98911.00
2022-10-26T20:00:30.704Z,98909.00
2022-10-26T20:03:10.026Z,98915.00
2022-10-26T20:10:31.577Z,98912.00
2022-10-26T20:17:29.899Z,98910.00
2022-10-26T20:24:18.587Z,98909.00
2022-10-26T20:31:06.969Z,98918.00
2022-10-26T20:37:58.168Z,98931.00
2022-10-26T20:40:50.259Z,98933.00
2022-10-26T20:43:26.919Z,98934.00
2022-10-26T20:46:03.942Z,98929.00
2022-10-26T20:48:51.215Z,98933.00
2022-10-26T20:51:47.532Z,98932.00
2022-10-26T21:03:09.320Z,98923.00
2022-10-26T21:05:48.107Z,98925.00
2022-10-26T21:08:59.146Z,98917.00
2022-10-26T21:11:40.303Z,98919.00
2022-10-26T21:14:31.681Z,98939.00
2022-10-26T21:17:09.188Z,98922.00
2022-10-26T21:19:53.992Z,98930.00
2022-10-26T21:26:45.916Z,98936.00
2022-10-26T21:37:35.385Z,98951.00
2022-10-26T21:40:32.039Z,98943.00
2022-10-26T21:43:15.897Z,98955.00
2022-10-26T21:45:58.436Z,98953.00
2022-10-26T21:48:41.888Z,98963.00
2022-10-26T21:51:22.436Z,98968.00
2022-10-26T21:54:16.520Z,98960.00
2022-10-26T21:56:53.653Z,98958.00
2022-10-26T21:59:29.771Z,98959.00
2022-10-26T22:02:04.716Z,98970.00
2022-10-26T22:04:43.507Z,98962.00
2022-10-26T22:07:25.667Z,98969.00
2022-10-26T22:18:23.304Z,98976.00
2022-10-26T22:25:11.461Z,98962.00
2022-10-26T22:27:51.190Z,98976.00
2022-10-26T22:30:27.318Z,98968.00
2022-10-26T22:33:25.678Z,98963.00
2022-10-26T22:36:20.539Z,98968.00
2022-10-26T22:38:58.206Z,98952.00
2022-10-26T22:41:36.765Z,98974.00
2022-10-26T22:44:32.875Z,98968.00
2022-10-26T22:47:20.986Z,98950.00
2022-10-26T22:49:58.354Z,98953.00
2022-10-26T22:52:38.652Z,98950.00
2022-10-26T22:55:13.493Z,98967.00
2022-10-26T22:57:49.906Z,98955.00
2022-10-26T23:00:25.568Z,98968.00
2022-10-26T23:03:01.232Z,98957.00
2022-10-26T23:05:50.801Z,98958.00
2022-10-26T23:08:25.849Z,98965.00
2022-10-26T23:11:11.773Z,98971.00
2022-10-26T23:13:53.551Z,98968.00
2022-10-26T23:16:29.832Z,98955.00
2022-10-26T23:19:10.540Z,98962.00
2022-10-26T23:22:01.343Z,98960.00
2022-10-26T23:33:01.025Z,98968.00
2022-10-26T23:39:50.778Z,98966.00
2022-10-26T23:55:11.470Z,98976.00
2022-10-26T23:57:46.244Z,98952.00
